createdAt,value
2022-08-11T00:02:35.682Z,82.30
2022-08-11T00:05:08.114Z,83.00
2022-08-11T00:07:42.319Z,83.10
2022-08-11T00:10:13.234Z,83.70
2022-08-11T00:12:42.760Z,84.00
2022-08-11T00:15:12.362Z,84.10
2022-08-11T00:17:43.887Z,84.10
2022-08-11T00:20:16.978Z,84.60
2022-08-11T00:22:48.148Z,84.30
2022-08-11T00:25:19.074Z,85.20
2022-08-11T00:27:48.708Z,84.70
2022-08-11T00:30:17.573Z,85.30
2022-08-11T00:32:56.095Z,85.10
2022-08-11T00:35:51.011Z,85.20
2022-08-11T00:38:17.675Z,85.00
2022-08-11T00:40:56.226Z,85.50
2022-08-11T00:43:38.460Z,85.40
2022-08-11T00:46:17.155Z,85.60
2022-08-11T00:49:10.083Z,85.50
2022-08-11T00:51:56.700Z,85.90
2022-08-11T00:55:19.443Z,86.40
2022-08-11T00:58:33.324Z,86.10
2022-08-11T01:01:28.504Z,85.00
2022-08-11T01:04:43.537Z,85.60
2022-08-11T01:08:03.288Z,85.30
2022-08-11T01:10:46.311Z,85.90
2022-08-11T01:13:30.684Z,86.10
2022-08-11T01:16:34.831Z,86.80
2022-08-11T01:20:04.177Z,87.10
2022-08-11T01:23:07.467Z,87.30
2022-08-11T01:26:09.494Z,86.60
2022-08-11T01:29:08.630Z,86.50
2022-08-11T01:32:03.355Z,86.70
2022-08-11T01:35:02.507Z,87.40
2022-08-11T01:38:13.680Z,86.80
2022-08-11T01:41:23.907Z,87.50
2022-08-11T01:44:36.510Z,87.00
2022-08-11T01:47:36.570Z,88.20
2022-08-11T01:50:17.751Z,88.70
2022-08-11T01:53:02.597Z,89.20
2022-08-11T01:55:44.658Z,89.10
2022-08-11T01:58:21.182Z,88.80
2022-08-11T02:01:17.683Z,89.80
2022-08-11T02:03:55.198Z,89.60
2022-08-11T02:06:56.854Z,89.20
2022-08-11T02:09:49.699Z,89.30
2022-08-11T02:12:42.706Z,89.90
2022-08-11T02:15:27.955Z,90.10
2022-08-11T02:18:06.395Z,89.90
2022-08-11T02:21:00.488Z,89.70
2022-08-11T02:24:05.548Z,89.90
2022-08-11T02:26:36.729Z,89.70
2022-08-11T02:29:13.051Z,89.00
2022-08-11T02:32:25.928Z,89.20
2022-08-11T02:35:09.514Z,89.10
2022-08-11T02:37:49.438Z,89.00
2022-08-11T02:40:31.227Z,89.10
2022-08-11T02:43:25.598Z,89.30
2022-08-11T02:46:02.503Z,89.70
2022-08-11T02:49:03.567Z,90.10
2022-08-11T02:51:44.150Z,90.20
2022-08-11T02:54:22.419Z,90.00
2022-08-11T02:57:00.250Z,90.40
2022-08-11T02:59:53.209Z,90.20
2022-08-11T03:02:45.879Z,90.10
2022-08-11T03:05:25.115Z,90.00
2022-08-11T03:08:24.406Z,90.20
2022-08-11T03:11:23.986Z,90.50
2022-08-11T03:14:28.370Z,90.90
2022-08-11T03:17:04.986Z,91.00
2022-08-11T03:19:46.420Z,91.20
2022-08-11T03:22:23.178Z,91.10
2022-08-11T03:24:58.626Z,91.20
2022-08-11T03:27:37.775Z,91.30
2022-08-11T03:30:15.649Z,90.90
2022-08-11T03:33:09.023Z,90.80
2022-08-11T03:35:42.879Z,90.90
2022-08-11T03:38:15.780Z,91.60
2022-08-11T03:42:02.778Z,91.70
2022-08-11T03:44:35.613Z,91.70
2022-08-11T03:47:25.108Z,91.60
2022-08-11T03:50:06.976Z,91.50
2022-08-11T03:52:50.901Z,91.50
2022-08-11T03:55:40.071Z,91.30
2022-08-11T03:58:36.972Z,91.30
2022-08-11T04:01:50.061Z,91.90
2022-08-11T04:04:51.462Z,91.90
2022-08-11T04:07:46.256Z,92.00
2022-08-11T04:10:36.851Z,91.90
2022-08-11T04:13:35.995Z,91.90
2022-08-11T04:16:29.976Z,91.70
2022-08-11T04:19:39.990Z,91.90
2022-08-11T04:22:50.138Z,92.10
2022-08-11T04:25:57.890Z,92.30
2022-08-11T04:29:04.226Z,92.00
2022-08-11T04:31:44.452Z,92.00
2022-08-11T04:35:05.222Z,92.10
2022-08-11T04:38:06.642Z,91.90
2022-08-11T04:41:14.360Z,92.00
2022-08-11T04:44:26.607Z,92.00
2022-08-11T04:47:11.923Z,92.50
2022-08-11T04:50:17.424Z,92.60
2022-08-11T04:53:32.120Z,92.60
2022-08-11T04:56:32.911Z,92.50
2022-08-11T04:59:42.554Z,92.70
2022-08-11T05:02:51.754Z,92.80
2022-08-11T05:05:32.879Z,92.80
2022-08-11T05:08:37.486Z,92.90
2022-08-11T05:11:24.701Z,92.80
2022-08-11T05:14:19.195Z,92.90
2022-08-11T05:17:12.526Z,93.10
2022-08-11T05:20:04.666Z,92.90
2022-08-11T05:22:51.684Z,93.10
2022-08-11T05:26:44.689Z,93.00
2022-08-11T05:28:50.862Z,93.00
2022-08-11T05:31:40.793Z,93.00
2022-08-11T05:34:30.103Z,92.90
2022-08-11T05:37:25.698Z,93.00
2022-08-11T05:40:15.793Z,92.90
2022-08-11T05:43:09.497Z,92.90
2022-08-11T05:46:03.598Z,92.90
2022-08-11T05:48:53.097Z,92.70
2022-08-11T05:51:39.916Z,93.10
2022-08-11T05:54:46.073Z,92.60
2022-08-11T05:57:48.650Z,93.00
2022-08-11T06:00:12.287Z,92.40
2022-08-11T06:02:44.693Z,91.70
2022-08-11T06:05:14.231Z,91.80
2022-08-11T06:07:48.770Z,91.60
2022-08-11T06:10:30.019Z,91.20
2022-08-11T06:13:00.994Z,91.20
2022-08-11T06:15:30.902Z,91.20
2022-08-11T06:18:01.235Z,90.50
2022-08-11T06:20:36.476Z,90.10
2022-08-11T06:23:07.582Z,89.90
2022-08-11T06:25:38.250Z,88.70
2022-08-11T06:28:09.180Z,86.40
2022-08-11T06:30:45.717Z,85.60
2022-08-11T06:33:30.962Z,84.60
2022-08-11T06:36:05.522Z,84.30
2022-08-11T06:39:01.267Z,82.90
2022-08-11T06:41:36.794Z,81.30
2022-08-11T06:44:16.930Z,79.90
2022-08-11T06:46:48.518Z,78.00
2022-08-11T06:49:36.429Z,76.10
2022-08-11T06:52:06.976Z,75.30
2022-08-11T06:54:54.976Z,74.80
2022-08-11T06:57:42.434Z,74.50
2022-08-11T07:00:30.153Z,73.00
2022-08-11T07:03:08.249Z,72.80
2022-08-11T07:05:45.777Z,71.30
2022-08-11T07:09:11.555Z,70.90
2022-08-11T07:12:18.928Z,69.80
2022-08-11T07:15:11.170Z,65.70
2022-08-11T07:17:49.299Z,65.80
2022-08-11T07:20:36.518Z,64.20
2022-08-11T07:23:25.064Z,65.00
2022-08-11T07:26:12.479Z,65.10
2022-08-11T07:28:58.572Z,64.90
2022-08-11T07:31:34.101Z,64.70
2022-08-11T07:34:17.457Z,62.70
2022-08-11T07:36:50.978Z,63.00
2022-08-11T07:39:22.515Z,62.20
2022-08-11T07:41:52.463Z,61.70
2022-08-11T07:44:21.235Z,62.90
2022-08-11T07:47:09.492Z,61.20
2022-08-11T07:49:57.062Z,61.40
2022-08-11T07:52:30.403Z,61.10
2022-08-11T07:55:02.386Z,59.20
2022-08-11T07:58:16.191Z,58.70
2022-08-11T08:00:59.129Z,58.50
2022-08-11T08:03:54.650Z,57.50
2022-08-11T08:06:41.822Z,58.00
2022-08-11T08:09:29.059Z,57.00
2022-08-11T08:12:15.904Z,55.00
2022-08-11T08:15:01.676Z,55.60
2022-08-11T08:18:08.367Z,55.90
2022-08-11T08:20:40.279Z,55.00
2022-08-11T08:23:09.377Z,56.10
2022-08-11T08:25:42.160Z,56.60
2022-08-11T08:28:13.987Z,56.40
2022-08-11T08:30:47.772Z,55.00
2022-08-11T08:33:20.301Z,56.70
2022-08-11T08:36:11.116Z,56.30
2022-08-11T08:38:41.047Z,57.30
2022-08-11T08:41:13.415Z,57.20
2022-08-11T08:43:49.057Z,57.30
2022-08-11T08:46:21.663Z,56.90
2022-08-11T08:48:53.411Z,56.10
2022-08-11T08:52:01.019Z,55.00
2022-08-11T08:54:30.375Z,55.10
2022-08-11T08:56:59.188Z,55.00
2022-08-11T08:59:48.025Z,55.10
2022-08-11T09:02:22.050Z,54.40
2022-08-11T09:05:04.231Z,55.50
2022-08-11T09:07:39.641Z,55.70
2022-08-11T09:10:10.715Z,54.40
2022-08-11T09:12:41.566Z,54.90
2022-08-11T09:15:11.926Z,53.90
2022-08-11T09:17:43.140Z,54.80
2022-08-11T09:20:14.703Z,53.90
2022-08-11T09:26:11.246Z,54.30
2022-08-11T09:28:39.678Z,52.20
2022-08-11T09:31:08.208Z,53.50
2022-08-11T09:33:37.199Z,53.80
2022-08-11T09:36:22.022Z,56.40
2022-08-11T09:39:10.536Z,55.80
2022-08-11T09:41:55.798Z,53.90
2022-08-11T09:44:48.792Z,54.60
2022-08-11T09:47:24.506Z,54.50
2022-08-11T09:49:56.145Z,54.70
2022-08-11T09:52:25.838Z,54.90
2022-08-11T09:54:56.579Z,53.10
2022-08-11T09:57:43.792Z,53.40
2022-08-11T10:00:15.199Z,54.00
2022-08-11T10:02:45.350Z,54.10
2022-08-11T10:05:35.911Z,54.70
2022-08-11T10:08:05.187Z,56.90
2022-08-11T10:10:37.247Z,55.80
2022-08-11T10:13:44.061Z,57.20
2022-08-11T10:16:03.662Z,56.30
2022-08-11T10:18:49.475Z,57.00
2022-08-11T10:21:28.430Z,56.90
2022-08-11T10:24:17.132Z,57.70
2022-08-11T10:26:54.373Z,56.70
2022-08-11T10:29:45.310Z,57.20
2022-08-11T10:32:52.157Z,56.90
2022-08-11T10:35:28.249Z,54.40
2022-08-11T10:38:09.112Z,54.60
2022-08-11T10:40:40.680Z,54.40
2022-08-11T10:43:13.587Z,55.10
2022-08-11T10:46:03.041Z,55.30
2022-08-11T10:48:36.087Z,54.10
2022-08-11T10:51:14.939Z,53.20
2022-08-11T10:54:03.123Z,54.00
2022-08-11T10:56:51.731Z,55.10
2022-08-11T10:59:23.246Z,53.90
2022-08-11T11:01:53.574Z,54.00
2022-08-11T11:04:29.099Z,52.40
2022-08-11T11:07:14.921Z,53.10
2022-08-11T11:09:48.354Z,54.40
2022-08-11T11:12:39.470Z,54.30
2022-08-11T11:15:29.063Z,53.60
2022-08-11T11:18:04.616Z,54.80
2022-08-11T11:20:45.040Z,55.10
2022-08-11T11:23:20.990Z,53.90
2022-08-11T11:26:10.860Z,53.40
2022-08-11T11:29:22.416Z,53.70
2022-08-11T11:32:10.783Z,52.30
2022-08-11T11:34:54.018Z,53.40
2022-08-11T11:37:24.872Z,55.80
2022-08-11T11:39:54.203Z,52.70
2022-08-11T11:42:23.987Z,52.40
2022-08-11T11:44:55.828Z,51.80
2022-08-11T11:47:26.574Z,53.20
2022-08-11T11:49:55.698Z,53.80
2022-08-11T11:52:24.915Z,52.80
2022-08-11T11:54:56.363Z,54.30
2022-08-11T11:57:58.749Z,54.00
2022-08-11T12:00:45.399Z,54.40
2022-08-11T12:03:15.605Z,55.30
2022-08-11T12:05:44.834Z,53.20
2022-08-11T12:08:16.999Z,53.50
2022-08-11T12:10:47.954Z,55.60
2022-08-11T12:13:35.589Z,52.60
2022-08-11T12:16:35.758Z,50.10
2022-08-11T12:18:57.337Z,53.20
2022-08-11T12:21:26.338Z,52.80
2022-08-11T12:24:15.207Z,53.40
2022-08-11T12:27:16.113Z,51.50
2022-08-11T12:29:51.358Z,52.70
2022-08-11T12:32:24.246Z,50.50
2022-08-11T12:34:57.681Z,51.60
2022-08-11T12:37:30.626Z,53.10
2022-08-11T12:40:42.821Z,53.00
2022-08-11T12:43:38.290Z,53.80
2022-08-11T12:46:09.801Z,52.30
2022-08-11T12:49:04.044Z,52.60
2022-08-11T12:52:11.382Z,52.50
2022-08-11T12:54:52.729Z,52.60
2022-08-11T12:57:45.242Z,53.30
2022-08-11T13:00:32.739Z,53.50
2022-08-11T13:03:19.580Z,52.40
2022-08-11T13:05:50.476Z,51.60
2022-08-11T13:08:23.075Z,50.90
2022-08-11T13:11:10.323Z,52.10
2022-08-11T13:13:55.967Z,52.60
2022-08-11T13:16:29.107Z,53.50
2022-08-11T13:18:58.970Z,53.90
2022-08-11T13:21:28.852Z,53.90
2022-08-11T13:24:00.439Z,54.70
2022-08-11T13:26:47.829Z,54.50
2022-08-11T13:29:23.362Z,54.40
2022-08-11T13:31:53.182Z,55.10
2022-08-11T13:34:24.041Z,55.00
2022-08-11T13:36:54.743Z,56.60
2022-08-11T13:39:26.648Z,57.00
2022-08-11T13:41:57.247Z,57.80
2022-08-11T13:44:28.249Z,56.30
2022-08-11T13:47:01.655Z,54.70
2022-08-11T13:49:30.934Z,54.10
2022-08-11T13:52:00.159Z,54.70
2022-08-11T13:54:33.119Z,56.90
2022-08-11T13:57:09.366Z,56.20
2022-08-11T13:59:51.961Z,54.90
2022-08-11T14:02:29.245Z,56.30
2022-08-11T14:05:02.571Z,54.40
2022-08-11T14:07:36.211Z,53.70
2022-08-11T14:10:08.269Z,54.20
2022-08-11T14:12:55.925Z,53.80
2022-08-11T14:15:26.452Z,54.40
2022-08-11T14:18:03.198Z,54.20
2022-08-11T14:20:54.900Z,54.90
2022-08-11T14:23:28.722Z,55.30
2022-08-11T14:26:16.647Z,55.00
2022-08-11T14:28:45.612Z,55.10
2022-08-11T14:31:15.441Z,54.90
2022-08-11T14:34:00.751Z,54.20
2022-08-11T14:36:35.997Z,55.90
2022-08-11T14:39:08.409Z,56.30
2022-08-11T14:42:11.287Z,55.60
2022-08-11T14:45:01.290Z,55.90
2022-08-11T14:47:32.517Z,54.20
2022-08-11T14:50:09.991Z,54.90
2022-08-11T14:52:39.384Z,55.90
2022-08-11T14:55:26.978Z,56.00
2022-08-11T14:57:57.572Z,55.80
2022-08-11T15:00:27.389Z,56.50
2022-08-11T15:03:12.277Z,55.60
2022-08-11T15:05:56.736Z,55.80
2022-08-11T15:08:47.785Z,55.20
2022-08-11T15:11:50.394Z,55.00
2022-08-11T15:14:34.766Z,54.90
2022-08-11T15:17:10.085Z,54.70
2022-08-11T15:20:04.005Z,54.50
2022-08-11T15:22:49.891Z,54.50
2022-08-11T15:25:19.858Z,54.50
2022-08-11T15:28:07.910Z,54.90
2022-08-11T15:30:56.776Z,55.80
2022-08-11T15:33:45.319Z,55.90
2022-08-11T15:36:33.330Z,56.50
2022-08-11T15:39:06.763Z,55.80
2022-08-11T15:41:58.746Z,56.90
2022-08-11T15:45:03.217Z,57.10
2022-08-11T15:47:41.353Z,56.30
2022-08-11T15:50:15.295Z,56.80
2022-08-11T15:52:50.709Z,56.90
2022-08-11T15:55:20.485Z,56.90
2022-08-11T15:58:08.937Z,57.10
2022-08-11T16:00:58.813Z,56.70
2022-08-11T16:04:07.530Z,57.10
2022-08-11T16:06:40.413Z,57.40
2022-08-11T16:09:19.111Z,57.20
2022-08-11T16:11:48.452Z,57.90
2022-08-11T16:14:35.711Z,57.60
2022-08-11T16:17:05.652Z,57.90
2022-08-11T16:19:37.486Z,57.80
2022-08-11T16:22:10.338Z,58.20
2022-08-11T16:26:30.314Z,58.30
2022-08-11T16:27:36.270Z,59.10
2022-08-11T16:30:06.890Z,58.50
2022-08-11T16:32:37.994Z,58.50
2022-08-11T16:35:29.172Z,58.60
2022-08-11T16:38:15.940Z,58.30
2022-08-11T16:40:44.962Z,58.30
2022-08-11T16:43:35.426Z,58.20
2022-08-11T16:46:28.406Z,58.80
2022-08-11T16:48:57.854Z,58.60
2022-08-11T16:51:27.371Z,58.30
2022-08-11T16:54:04.652Z,58.20
2022-08-11T16:56:37.282Z,58.10
2022-08-11T16:59:17.115Z,57.50
2022-08-11T17:01:53.075Z,57.60
2022-08-11T17:04:47.226Z,58.00
2022-08-11T17:07:41.494Z,57.80
2022-08-11T17:10:50.895Z,57.70
2022-08-11T17:13:27.172Z,58.40
2022-08-11T17:16:12.063Z,58.10
2022-08-11T17:18:46.937Z,57.70
2022-08-11T17:21:22.529Z,58.20
2022-08-11T17:23:55.895Z,58.40
2022-08-11T17:26:49.476Z,59.00
2022-08-11T17:29:19.716Z,58.90
2022-08-11T17:32:07.406Z,59.10
2022-08-11T17:34:53.604Z,58.70
2022-08-11T17:37:24.219Z,58.80
2022-08-11T17:39:56.450Z,59.20
2022-08-11T17:42:45.935Z,59.50
2022-08-11T17:45:32.528Z,59.80
2022-08-11T17:48:20.082Z,60.30
2022-08-11T17:50:50.406Z,60.20
2022-08-11T17:53:37.251Z,60.50
2022-08-11T17:56:26.071Z,60.70
2022-08-11T17:59:21.735Z,60.50
2022-08-11T18:01:53.994Z,60.30
2022-08-11T18:04:22.295Z,60.50
2022-08-11T18:06:53.449Z,62.60
2022-08-11T18:09:41.546Z,62.60
2022-08-11T18:12:29.798Z,62.50
2022-08-11T18:15:16.655Z,62.20
2022-08-11T18:18:02.516Z,62.30
2022-08-11T18:20:49.048Z,62.20
2022-08-11T18:23:45.980Z,65.00
2022-08-11T18:26:38.695Z,66.20
2022-08-11T18:29:26.899Z,66.50
2022-08-11T18:32:22.116Z,66.60
2022-08-11T18:35:12.614Z,67.50
2022-08-11T18:38:05.506Z,68.00
2022-08-11T18:40:54.242Z,67.60
2022-08-11T18:43:41.533Z,68.90
2022-08-11T18:46:33.296Z,68.30
2022-08-11T18:49:26.639Z,68.20
2022-08-11T18:52:22.938Z,67.20
2022-08-11T18:55:10.842Z,68.10
2022-08-11T18:58:00.934Z,68.60
2022-08-11T19:00:48.130Z,68.30
2022-08-11T19:03:43.505Z,68.30
2022-08-11T19:06:40.960Z,68.50
2022-08-11T19:09:30.494Z,72.60
2022-08-11T19:12:17.672Z,73.50
2022-08-11T19:15:04.863Z,74.50
2022-08-11T19:17:52.314Z,73.90
2022-08-11T19:20:43.091Z,74.40
2022-08-11T19:23:31.319Z,73.50
2022-08-11T19:26:18.696Z,72.30
2022-08-11T19:29:07.734Z,72.30
2022-08-11T19:31:55.650Z,71.80
2022-08-11T19:34:43.659Z,73.00
2022-08-11T19:37:31.297Z,73.20
2022-08-11T19:40:20.364Z,73.40
2022-08-11T19:43:18.742Z,73.90
2022-08-11T19:46:13.676Z,73.60
2022-08-11T19:49:00.363Z,73.70
2022-08-11T19:51:47.482Z,73.30
2022-08-11T19:54:43.452Z,72.70
2022-08-11T19:57:29.997Z,72.50
2022-08-11T20:00:16.929Z,72.80
2022-08-11T20:03:07.261Z,74.80
2022-08-11T20:05:59.601Z,74.00
2022-08-11T20:08:47.383Z,75.70
2022-08-11T20:11:36.701Z,77.20
2022-08-11T20:14:25.047Z,77.90
2022-08-11T20:17:11.612Z,76.40
2022-08-11T20:22:50.311Z,75.20
2022-08-11T20:25:37.550Z,75.60
2022-08-11T20:28:25.618Z,75.80
2022-08-11T20:31:12.575Z,76.10
2022-08-11T20:34:00.877Z,76.80
2022-08-11T20:36:54.044Z,77.20
2022-08-11T20:39:43.255Z,77.10
2022-08-11T20:42:31.101Z,76.80
2022-08-11T20:45:23.826Z,76.90
2022-08-11T20:48:15.109Z,77.40
2022-08-11T20:51:06.045Z,77.70
2022-08-11T20:53:53.744Z,77.20
2022-08-11T20:56:42.937Z,78.50
2022-08-11T20:59:38.356Z,78.00
2022-08-11T21:02:37.349Z,78.10
2022-08-11T21:06:09.009Z,78.20
2022-08-11T21:08:30.874Z,78.60
2022-08-11T21:11:27.543Z,78.20
2022-08-11T21:14:15.411Z,77.90
2022-08-11T21:17:26.895Z,77.80
2022-08-11T21:20:20.388Z,77.90
2022-08-11T21:23:19.843Z,77.50
2022-08-11T21:26:13.382Z,77.30
2022-08-11T21:29:00.929Z,77.20
2022-08-11T21:31:50.136Z,77.00
2022-08-11T21:34:38.475Z,77.20
2022-08-11T21:37:26.846Z,77.40
2022-08-11T21:40:17.137Z,77.10
2022-08-11T21:43:05.085Z,76.90
2022-08-11T21:45:51.535Z,76.30
2022-08-11T21:48:38.595Z,76.70
2022-08-11T21:51:24.685Z,77.40
2022-08-11T21:54:12.140Z,77.80
2022-08-11T21:56:58.574Z,77.40
2022-08-11T21:59:54.062Z,77.80
2022-08-11T22:02:40.569Z,77.80
2022-08-11T22:05:26.866Z,77.40
2022-08-11T22:08:12.835Z,77.20
2022-08-11T22:11:00.120Z,77.10
2022-08-11T22:14:01.259Z,77.00
2022-08-11T22:16:51.458Z,76.80
2022-08-11T22:19:39.708Z,76.80
2022-08-11T22:22:25.664Z,76.30
2022-08-11T22:25:16.629Z,76.50
2022-08-11T22:28:05.515Z,77.40
2022-08-11T22:30:52.332Z,77.90
2022-08-11T22:33:42.074Z,78.90
2022-08-11T22:36:45.988Z,78.90
2022-08-11T22:39:35.404Z,79.10
2022-08-11T22:42:24.149Z,79.20
2022-08-11T22:45:21.497Z,79.20
2022-08-11T22:48:09.459Z,79.80
2022-08-11T22:50:57.524Z,80.10
2022-08-11T22:53:58.099Z,80.00
2022-08-11T22:56:46.073Z,80.30
2022-08-11T22:59:33.092Z,80.90
2022-08-11T23:02:20.891Z,81.00
2022-08-11T23:05:07.444Z,81.40
2022-08-11T23:07:54.242Z,81.20
2022-08-11T23:10:40.601Z,81.20
2022-08-11T23:13:27.622Z,81.10
2022-08-11T23:16:13.885Z,80.80
2022-08-11T23:19:01.416Z,80.20
2022-08-11T23:21:48.478Z,80.60
2022-08-11T23:24:35.388Z,80.40
2022-08-11T23:27:22.805Z,80.30
2022-08-11T23:30:12.166Z,80.50
2022-08-11T23:32:59.385Z,80.40
2022-08-11T23:35:53.694Z,80.20
2022-08-11T23:38:42.668Z,80.50
2022-08-11T23:41:28.526Z,80.50
2022-08-11T23:44:14.666Z,80.70
2022-08-11T23:47:01.080Z,81.10
2022-08-11T23:49:47.900Z,81.70
2022-08-11T23:52:35.404Z,82.40
2022-08-11T23:55:21.744Z,82.90
2022-08-11T23:58:08.058Z,82.80
